Time;durP1;ratioP1;P1;durP2;ratioP2;P2;SDS_P1;SDS_P2;PMS_P1;PMS_P2;Temp;Humidity;BMP_temperature;BMP_pressure;BME280_temperature;BME280_humidity;BME280_pressure;Samples;Min_cycle;Max_cycle;Signal;HPM_P1;HPM_P2
2023/09/23 00:00:12;;;;;;;2.70;1.90;;;12.00;99.90;;;;;;5073394;28;20079;-72
2023/09/23 00:02:38;;;;;;;3.03;1.92;;;11.90;99.90;;;;;;5073036;28;20110;-72
2023/09/23 00:05:09;;;;;;;3.00;2.00;;;12.00;99.90;;;;;;5071957;28;20044;-73
2023/09/23 00:07:35;;;;;;;3.95;2.35;;;11.90;99.90;;;;;;5073247;28;20119;-71
2023/09/23 00:10:08;;;;;;;3.60;2.20;;;12.00;99.90;;;;;;5063496;28;20135;-72
2023/09/23 00:12:37;;;;;;;3.65;2.42;;;11.90;99.90;;;;;;5064588;28;20511;-75
2023/09/23 00:15:07;;;;;;;3.28;2.35;;;12.00;99.90;;;;;;5072844;28;20044;-76
2023/09/23 00:17:35;;;;;;;4.03;2.35;;;12.00;99.90;;;;;;5070239;28;20139;-72
2023/09/23 00:20:15;;;;;;;4.70;2.63;;;12.00;99.90;;;;;;5072761;28;20052;-72
2023/09/23 00:22:46;;;;;;;3.92;2.50;;;11.90;99.90;;;;;;5058231;28;20374;-72
2023/09/23 00:25:13;;;;;;;3.58;2.85;;;12.00;99.90;;;;;;5073213;28;20044;-72
2023/09/23 00:27:41;;;;;;;3.60;2.40;;;12.00;99.90;;;;;;5072599;28;20137;-72
2023/09/23 00:30:07;;;;;;;4.60;2.88;;;12.00;99.90;;;;;;5069484;28;20447;-72
2023/09/23 00:32:34;;;;;;;3.25;2.20;;;12.00;99.90;;;;;;5071233;28;20048;-72
2023/09/23 00:35:00;;;;;;;4.30;2.80;;;12.00;99.90;;;;;;5072792;28;20044;-72
2023/09/23 00:37:27;;;;;;;3.47;2.63;;;12.00;99.90;;;;;;5072522;28;20036;-71
2023/09/23 00:39:53;;;;;;;2.90;2.22;;;12.00;99.90;;;;;;5064544;28;20082;-72
2023/09/23 00:42:19;;;;;;;3.20;2.40;;;12.00;99.90;;;;;;5073072;28;20041;-71
2023/09/23 00:44:45;;;;;;;5.07;2.80;;;12.00;99.90;;;;;;5073060;28;20044;-72
2023/09/23 00:47:15;;;;;;;3.88;2.42;;;12.00;99.90;;;;;;5072738;28;20072;-72
2023/09/23 00:49:43;;;;;;;4.82;2.53;;;12.00;99.90;;;;;;5074527;28;20522;-71
2023/09/23 00:52:09;;;;;;;3.58;2.35;;;12.00;99.90;;;;;;5076796;28;20055;-72
2023/09/23 00:54:36;;;;;;;3.72;2.67;;;11.90;99.90;;;;;;5075773;28;20063;-71
2023/09/23 00:57:06;;;;;;;5.45;2.75;;;12.00;99.90;;;;;;5076999;28;20037;-71
2023/09/23 00:59:35;;;;;;;4.28;2.90;;;12.00;99.90;;;;;;5076643;28;20048;-71
2023/09/23 01:02:04;;;;;;;3.88;2.65;;;12.00;99.90;;;;;;5076343;28;20049;-73
2023/09/23 01:04:31;;;;;;;4.32;2.80;;;12.00;99.90;;;;;;5076402;28;20081;-73
2023/09/23 01:06:59;;;;;;;4.43;3.25;;;11.90;99.90;;;;;;5075517;28;20389;-74
2023/09/23 01:09:25;;;;;;;4.70;2.75;;;12.00;99.90;;;;;;5076094;28;20130;-73
2023/09/23 01:11:52;;;;;;;4.45;2.85;;;11.90;99.90;;;;;;5073698;28;20080;-73
2023/09/23 01:14:25;;;;;;;3.88;2.75;;;11.90;99.90;;;;;;5076172;28;20467;-73
2023/09/23 01:16:51;;;;;;;5.25;3.08;;;11.90;99.90;;;;;;5076147;28;20543;-73
2023/09/23 01:19:18;;;;;;;3.95;2.75;;;11.90;99.90;;;;;;5075088;28;20046;-72
2023/09/23 01:21:48;;;;;;;5.10;3.03;;;11.90;99.90;;;;;;5076268;28;20088;-72
2023/09/23 01:24:15;;;;;;;4.07;2.83;;;11.90;99.90;;;;;;5076556;28;20083;-72
2023/09/23 01:26:43;;;;;;;5.65;2.83;;;11.90;99.90;;;;;;5075305;28;20059;-72
2023/09/23 01:29:09;;;;;;;3.92;2.70;;;11.90;99.90;;;;;;5074722;28;20497;-74
2023/09/23 01:31:35;;;;;;;5.45;3.10;;;11.80;99.90;;;;;;5070796;28;20045;-72
2023/09/23 01:34:01;;;;;;;4.90;3.50;;;11.80;99.90;;;;;;5065506;28;20056;-73
2023/09/23 01:36:27;;;;;;;4.35;3.13;;;11.90;99.90;;;;;;5075218;28;20405;-73
2023/09/23 01:38:53;;;;;;;5.15;3.40;;;11.80;99.90;;;;;;5075968;28;20044;-72
2023/09/23 01:41:18;;;;;;;5.30;3.55;;;11.80;99.90;;;;;;5076072;28;20524;-72
2023/09/23 01:43:44;;;;;;;4.18;2.83;;;11.80;99.90;;;;;;5075688;28;20120;-74
2023/09/23 01:46:10;;;;;;;5.20;3.67;;;11.90;99.90;;;;;;5074075;28;20048;-75
2023/09/23 01:48:38;;;;;;;5.55;3.70;;;11.80;99.90;;;;;;5075536;28;20037;-72
2023/09/23 01:51:06;;;;;;;4.22;3.03;;;11.90;99.90;;;;;;5075034;28;20082;-74
2023/09/23 01:53:32;;;;;;;5.18;3.30;;;11.90;99.90;;;;;;5074786;28;20371;-73
2023/09/23 01:55:57;;;;;;;4.13;2.58;;;11.90;99.90;;;;;;5075847;28;20075;-72
2023/09/23 01:58:23;;;;;;;4.28;2.60;;;11.90;99.90;;;;;;5075560;28;20032;-73
2023/09/23 02:00:54;;;;;;;3.60;2.63;;;11.90;99.90;;;;;;5074687;28;20056;-74
2023/09/23 02:03:22;;;;;;;3.45;1.85;;;11.90;99.90;;;;;;5075519;28;20110;-75
2023/09/23 02:05:48;;;;;;;3.75;2.00;;;11.80;99.90;;;;;;5074380;28;20482;-73
2023/09/23 02:08:15;;;;;;;3.33;1.75;;;11.80;99.90;;;;;;5075698;28;20036;-73
2023/09/23 02:10:44;;;;;;;3.70;2.00;;;11.80;99.90;;;;;;5075610;28;20059;-73
2023/09/23 02:13:09;;;;;;;4.10;2.05;;;11.80;99.90;;;;;;5063984;28;20056;-73
2023/09/23 02:15:36;;;;;;;3.35;2.15;;;11.80;99.90;;;;;;5074542;28;20477;-74
2023/09/23 02:18:04;;;;;;;3.60;2.17;;;11.70;99.90;;;;;;5075307;28;20055;-74
2023/09/23 02:20:29;;;;;;;3.88;2.35;;;11.70;99.90;;;;;;5075415;28;20087;-74
2023/09/23 02:22:55;;;;;;;4.20;2.17;;;11.70;99.90;;;;;;5074879;28;20075;-73
2023/09/23 02:25:25;;;;;;;2.88;2.08;;;11.70;99.90;;;;;;5074649;28;20044;-74
2023/09/23 02:27:51;;;;;;;3.65;2.75;;;11.70;99.90;;;;;;5074648;28;20559;-74
2023/09/23 02:30:17;;;;;;;4.00;2.83;;;11.70;99.90;;;;;;5075212;28;20048;-73
2023/09/23 02:32:44;;;;;;;4.03;2.80;;;11.70;99.90;;;;;;5069383;28;20079;-73
2023/09/23 02:35:12;;;;;;;4.63;2.63;;;11.70;99.90;;;;;;5074886;28;20041;-72
2023/09/23 02:37:42;;;;;;;4.78;2.97;;;11.70;99.90;;;;;;5074210;28;20044;-72
2023/09/23 02:40:12;;;;;;;5.05;3.33;;;11.70;99.90;;;;;;5063717;28;20048;-72
2023/09/23 02:42:46;;;;;;;5.03;3.00;;;11.70;99.90;;;;;;5074869;28;20055;-73
2023/09/23 02:45:15;;;;;;;3.92;2.85;;;11.70;99.90;;;;;;5073791;28;20508;-72
2023/09/23 02:47:43;;;;;;;3.90;2.70;;;11.70;99.90;;;;;;5074762;28;20040;-72
2023/09/23 02:50:10;;;;;;;4.55;3.00;;;11.70;99.90;;;;;;5074699;28;20174;-72
2023/09/23 02:52:37;;;;;;;4.03;3.00;;;11.70;99.90;;;;;;5074725;28;20420;-73
2023/09/23 02:55:07;;;;;;;4.53;3.05;;;11.70;99.90;;;;;;5074428;28;20060;-72
2023/09/23 02:57:35;;;;;;;4.28;3.10;;;11.70;99.90;;;;;;5073608;28;20048;-71
2023/09/23 03:00:12;;;;;;;4.20;3.08;;;11.70;99.90;;;;;;5074016;28;20045;-72
2023/09/23 03:02:38;;;;;;;5.50;3.45;;;11.60;99.90;;;;;;5062143;28;20036;-72
2023/09/23 03:05:07;;;;;;;5.90;3.35;;;11.60;99.90;;;;;;5074467;28;20158;-72
2023/09/23 03:07:33;;;;;;;4.53;3.20;;;11.60;99.90;;;;;;5056177;28;20044;-72
2023/09/23 03:10:01;;;;;;;4.78;3.30;;;11.50;99.90;;;;;;5073980;28;20401;-73
2023/09/23 03:12:29;;;;;;;3.90;2.83;;;11.50;99.90;;;;;;5069722;28;20049;-71
2023/09/23 03:14:56;;;;;;;5.78;3.10;;;11.50;99.90;;;;;;5069616;28;20043;-72
2023/09/23 03:17:22;;;;;;;4.25;2.90;;;11.40;99.90;;;;;;5073872;28;20367;-72
2023/09/23 03:19:51;;;;;;;5.15;3.22;;;11.30;99.90;;;;;;5073113;28;20047;-72
2023/09/23 03:22:20;;;;;;;5.90;3.60;;;11.30;99.90;;;;;;5074095;28;20097;-72
2023/09/23 03:24:48;;;;;;;5.13;3.60;;;11.20;99.90;;;;;;5073044;28;20044;-73
2023/09/23 03:27:14;;;;;;;4.85;3.40;;;11.20;99.90;;;;;;5071215;28;20041;-74
2023/09/23 03:29:40;;;;;;;5.47;3.53;;;11.10;99.90;;;;;;5070405;28;20053;-71
2023/09/23 03:32:06;;;;;;;5.28;3.63;;;11.10;99.90;;;;;;5072344;28;20048;-71
2023/09/23 03:34:34;;;;;;;4.90;3.28;;;11.00;99.90;;;;;;5073002;28;20048;-72
2023/09/23 03:37:00;;;;;;;5.25;3.90;;;11.00;99.90;;;;;;5073219;28;20473;-72
2023/09/23 03:39:26;;;;;;;5.90;3.80;;;11.00;99.90;;;;;;5065437;28;20044;-73
2023/09/23 03:41:52;;;;;;;5.72;3.45;;;10.90;99.90;;;;;;5073229;28;20052;-72
2023/09/23 03:44:18;;;;;;;5.30;3.17;;;10.90;99.90;;;;;;5073920;28;20040;-71
2023/09/23 03:46:47;;;;;;;6.38;4.15;;;10.90;99.90;;;;;;5073245;28;20033;-71
2023/09/23 03:49:13;;;;;;;6.57;4.55;;;10.90;99.90;;;;;;5073330;28;20040;-71
2023/09/23 03:51:39;;;;;;;6.75;4.50;;;10.80;99.90;;;;;;5073454;28;20041;-72
2023/09/23 03:54:05;;;;;;;7.63;4.90;;;10.80;99.90;;;;;;5073632;28;20115;-71
2023/09/23 03:56:33;;;;;;;6.30;4.63;;;10.90;99.90;;;;;;5073426;28;20048;-73
2023/09/23 03:59:05;;;;;;;7.03;5.05;;;10.90;99.90;;;;;;5073445;28;20070;-72
2023/09/23 04:01:32;;;;;;;7.45;5.55;;;10.90;99.90;;;;;;5073109;28;20055;-71
2023/09/23 04:03:58;;;;;;;7.45;4.75;;;10.80;99.90;;;;;;5073172;28;20048;-72
2023/09/23 04:06:23;;;;;;;7.43;4.72;;;10.80;99.90;;;;;;5072022;28;20093;-71
2023/09/23 04:08:49;;;;;;;8.77;5.43;;;10.80;99.90;;;;;;5071701;28;20529;-72
2023/09/23 04:11:15;;;;;;;7.38;5.07;;;10.80;99.90;;;;;;5073657;28;20191;-71
2023/09/23 04:13:44;;;;;;;8.48;5.50;;;10.80;99.90;;;;;;5070753;28;20107;-72
2023/09/23 04:16:11;;;;;;;8.40;5.93;;;10.70;99.90;;;;;;5072819;28;20053;-74
2023/09/23 04:18:37;;;;;;;7.65;5.88;;;10.70;99.90;;;;;;5071385;28;20049;-72
2023/09/23 04:21:03;;;;;;;9.25;5.78;;;10.70;99.90;;;;;;5073010;28;20049;-71
2023/09/23 04:23:29;;;;;;;9.13;6.43;;;10.70;99.90;;;;;;5072916;28;20056;-72
2023/09/23 04:25:56;;;;;;;9.35;6.53;;;10.60;99.90;;;;;;5097685;28;20476;-72
2023/09/23 04:28:22;;;;;;;9.32;6.68;;;10.70;99.90;;;;;;5072707;28;20489;-72
2023/09/23 04:30:53;;;;;;;9.88;6.90;;;10.70;99.90;;;;;;5072812;28;20049;-72
2023/09/23 04:33:20;;;;;;;10.48;6.78;;;10.70;99.90;;;;;;5067095;28;20044;-72
2023/09/23 04:35:47;;;;;;;10.45;6.88;;;10.70;99.90;;;;;;5072812;28;20049;-73
2023/09/23 04:38:15;;;;;;;9.93;6.65;;;10.70;99.90;;;;;;5064813;28;20509;-73
2023/09/23 04:40:41;;;;;;;9.57;6.88;;;10.70;99.90;;;;;;5073566;28;20053;-71
2023/09/23 04:43:10;;;;;;;9.73;7.30;;;10.70;99.90;;;;;;5073084;28;20056;-72
2023/09/23 04:45:36;;;;;;;10.00;6.68;;;10.70;99.90;;;;;;5072666;28;20041;-71
2023/09/23 04:48:03;;;;;;;10.70;7.28;;;10.70;99.90;;;;;;5072681;28;20053;-71
2023/09/23 04:50:29;;;;;;;9.45;7.10;;;10.60;99.90;;;;;;5072816;28;20131;-73
2023/09/23 04:52:55;;;;;;;10.73;6.85;;;10.60;99.90;;;;;;5071676;28;20135;-72
2023/09/23 04:55:22;;;;;;;11.30;6.97;;;10.60;99.90;;;;;;5071050;28;20044;-71
2023/09/23 04:57:47;;;;;;;10.82;6.85;;;10.60;99.90;;;;;;5072366;28;20542;-72
2023/09/23 05:00:16;;;;;;;11.40;7.00;;;10.50;99.90;;;;;;5071518;28;20040;-71
2023/09/23 05:02:42;;;;;;;11.18;7.10;;;10.50;99.90;;;;;;5072694;28;20074;-71
2023/09/23 05:05:09;;;;;;;10.68;7.10;;;10.40;99.90;;;;;;5072675;28;20475;-72
2023/09/23 05:07:37;;;;;;;11.15;7.15;;;10.40;99.90;;;;;;5072203;28;20040;-72
2023/09/23 05:10:07;;;;;;;10.80;6.95;;;10.40;99.90;;;;;;5072062;28;20059;-72
2023/09/23 05:12:33;;;;;;;9.95;6.45;;;10.40;99.90;;;;;;5070234;28;20135;-72
2023/09/23 05:14:59;;;;;;;11.82;7.30;;;10.30;99.90;;;;;;5072942;28;20493;-72
2023/09/23 05:17:27;;;;;;;12.70;7.93;;;10.30;99.90;;;;;;5072842;28;20083;-72
2023/09/23 05:19:53;;;;;;;10.32;7.50;;;10.30;99.90;;;;;;5071917;28;20082;-72
2023/09/23 05:22:19;;;;;;;13.23;8.10;;;10.20;99.90;;;;;;5071509;28;20044;-73
2023/09/23 05:24:50;;;;;;;12.60;8.32;;;10.20;99.90;;;;;;5071490;28;20441;-72
2023/09/23 05:27:16;;;;;;;12.93;8.15;;;10.20;99.90;;;;;;5072516;28;20044;-72
2023/09/23 05:29:44;;;;;;;12.90;8.63;;;10.20;99.90;;;;;;5072487;28;20087;-72
2023/09/23 05:32:10;;;;;;;13.52;9.00;;;10.20;99.90;;;;;;5062870;28;20047;-72
2023/09/23 05:34:39;;;;;;;16.02;9.38;;;10.20;99.90;;;;;;5072574;28;20127;-71
2023/09/23 05:37:06;;;;;;;17.50;10.40;;;10.30;99.90;;;;;;5074336;28;20048;-72
2023/09/23 05:39:34;;;;;;;16.92;10.70;;;10.40;99.90;;;;;;5068691;28;20398;-73
2023/09/23 05:42:01;;;;;;;18.00;10.65;;;10.50;99.90;;;;;;5066046;28;20071;-72
2023/09/23 05:44:27;;;;;;;16.63;10.48;;;10.50;99.90;;;;;;5075842;28;20127;-72
2023/09/23 05:46:53;;;;;;;19.42;12.30;;;10.60;99.90;;;;;;5075724;28;20131;-72
2023/09/23 05:49:19;;;;;;;19.80;12.57;;;10.70;99.90;;;;;;5075521;28;20079;-72
2023/09/23 05:51:45;;;;;;;18.42;12.35;;;10.70;99.90;;;;;;5075945;28;20052;-71
2023/09/23 05:54:11;;;;;;;19.52;12.43;;;10.80;99.90;;;;;;5075589;28;20049;-72
2023/09/23 05:56:38;;;;;;;19.08;12.32;;;10.80;99.90;;;;;;5075604;28;20044;-72
2023/09/23 05:59:05;;;;;;;18.95;11.93;;;10.90;99.90;;;;;;5075673;28;20532;-72
2023/09/23 06:01:32;;;;;;;21.50;13.45;;;10.90;99.90;;;;;;5075316;28;20050;-73
2023/09/23 06:03:58;;;;;;;21.55;13.57;;;11.00;99.90;;;;;;5075676;28;20045;-72
2023/09/23 06:06:24;;;;;;;20.33;12.55;;;11.00;99.90;;;;;;5074738;28;20459;-72
2023/09/23 06:08:50;;;;;;;19.88;12.65;;;11.00;99.90;;;;;;5074110;28;20052;-75
2023/09/23 06:11:17;;;;;;;22.02;14.25;;;11.10;99.90;;;;;;5074851;28;20048;-72
2023/09/23 06:13:42;;;;;;;24.92;15.43;;;11.10;99.90;;;;;;5074821;28;20059;-72
2023/09/23 06:16:08;;;;;;;26.35;15.73;;;11.20;99.90;;;;;;5075344;28;20045;-73
2023/09/23 06:18:34;;;;;;;24.30;15.40;;;11.20;99.90;;;;;;5074314;28;20044;-76
2023/09/23 06:21:05;;;;;;;24.05;15.00;;;11.20;99.90;;;;;;5065912;28;20409;-72
2023/09/23 06:23:31;;;;;;;23.67;13.77;;;11.30;99.90;;;;;;5059094;28;20048;-72
2023/09/23 06:26:01;;;;;;;22.40;14.63;;;11.30;99.90;;;;;;5075344;28;20055;-73
2023/09/23 06:28:27;;;;;;;23.35;15.27;;;11.30;99.90;;;;;;5075244;28;20350;-72
2023/09/23 06:30:53;;;;;;;23.65;14.48;;;11.40;99.90;;;;;;5074814;28;20055;-73
2023/09/23 06:33:19;;;;;;;23.67;16.15;;;11.40;99.90;;;;;;5068438;28;20129;-72
2023/09/23 06:35:45;;;;;;;21.85;14.45;;;11.50;99.90;;;;;;5075040;28;20053;-73
2023/09/23 06:38:12;;;;;;;23.60;16.13;;;11.50;99.90;;;;;;5066609;28;20037;-72
2023/09/23 06:40:38;;;;;;;23.05;14.57;;;11.60;99.90;;;;;;5067690;28;20123;-72
2023/09/23 06:43:04;;;;;;;21.83;13.85;;;11.60;99.90;;;;;;5074931;28;20054;-73
2023/09/23 06:45:30;;;;;;;22.83;14.57;;;11.60;99.90;;;;;;5074177;28;20044;-63
2023/09/23 06:47:56;;;;;;;22.33;14.90;;;11.70;99.90;;;;;;5072977;28;20103;-63
2023/09/23 06:50:21;;;;;;;23.13;13.82;;;11.70;99.90;;;;;;5073310;28;20055;-62
2023/09/23 06:52:47;;;;;;;21.80;13.90;;;11.70;99.90;;;;;;5074467;28;20044;-63
2023/09/23 06:55:13;;;;;;;22.45;13.77;;;11.80;99.90;;;;;;5069155;28;20128;-63
2023/09/23 06:57:38;;;;;;;23.63;14.55;;;11.90;99.90;;;;;;5074857;28;20052;-63
2023/09/23 07:00:06;;;;;;;19.90;12.95;;;11.90;99.90;;;;;;5073344;28;20491;-63
2023/09/23 07:02:32;;;;;;;21.38;13.43;;;12.00;99.90;;;;;;5074341;28;20056;-63
2023/09/23 07:04:58;;;;;;;21.65;14.32;;;12.00;99.90;;;;;;5073808;28;20485;-63
2023/09/23 07:07:24;;;;;;;19.98;12.05;;;12.00;99.90;;;;;;5073363;28;20127;-63
2023/09/23 07:09:49;;;;;;;19.30;12.80;;;12.00;99.90;;;;;;5073131;28;20048;-62
2023/09/23 07:12:15;;;;;;;18.50;12.52;;;12.10;99.90;;;;;;5074095;28;20067;-62
2023/09/23 07:14:41;;;;;;;17.92;12.55;;;12.20;99.90;;;;;;5071812;28;20473;-63
2023/09/23 07:17:07;;;;;;;22.60;13.05;;;12.20;99.90;;;;;;5073847;28;20394;-64
2023/09/23 07:19:33;;;;;;;20.42;13.68;;;12.20;99.90;;;;;;5073772;28;20044;-63
2023/09/23 07:21:59;;;;;;;19.67;11.48;;;12.20;99.90;;;;;;5073881;28;20036;-63
2023/09/23 07:24:26;;;;;;;20.30;12.40;;;12.30;99.90;;;;;;5074058;28;20040;-63
2023/09/23 07:26:56;;;;;;;20.27;12.07;;;12.30;99.90;;;;;;5073302;28;20086;-63
2023/09/23 07:29:22;;;;;;;21.90;12.50;;;12.30;99.90;;;;;;5073155;28;20095;-63
2023/09/23 07:31:48;;;;;;;20.60;13.35;;;12.40;99.90;;;;;;5069390;28;20045;-63
2023/09/23 07:34:14;;;;;;;21.13;13.43;;;12.50;99.90;;;;;;5071217;28;20044;-63
2023/09/23 07:36:41;;;;;;;21.33;13.90;;;12.60;99.90;;;;;;5073610;28;20052;-63
2023/09/23 07:39:07;;;;;;;21.52;13.77;;;12.70;99.90;;;;;;5067449;28;20045;-63
2023/09/23 07:41:32;;;;;;;17.35;12.10;;;12.60;99.90;;;;;;5073837;28;20050;-63
2023/09/23 07:43:58;;;;;;;20.08;12.10;;;12.70;99.90;;;;;;5072414;28;20044;-63
2023/09/23 07:46:24;;;;;;;20.52;12.40;;;12.70;99.90;;;;;;5073626;28;20052;-64
2023/09/23 07:48:49;;;;;;;20.75;13.13;;;12.70;99.90;;;;;;5073327;28;20044;-64
2023/09/23 07:51:15;;;;;;;22.05;13.93;;;12.70;99.90;;;;;;5073365;28;20120;-64
2023/09/23 07:53:41;;;;;;;20.63;12.63;;;12.80;99.90;;;;;;5064318;28;20048;-64
2023/09/23 07:56:06;;;;;;;19.90;12.82;;;12.90;99.90;;;;;;5073430;28;20503;-65
2023/09/23 07:58:32;;;;;;;20.23;13.00;;;12.90;99.90;;;;;;5069601;28;20553;-65
2023/09/23 08:00:58;;;;;;;17.98;11.65;;;12.80;99.90;;;;;;5064836;28;20076;-66
2023/09/23 08:03:27;;;;;;;21.95;12.57;;;12.90;99.90;;;;;;5053584;28;20053;-64
2023/09/23 08:05:53;;;;;;;16.67;10.55;;;13.10;99.90;;;;;;5067243;28;20054;-63
2023/09/23 08:08:19;;;;;;;15.45;11.45;;;13.20;99.90;;;;;;5064061;28;20082;-64
2023/09/23 08:10:45;;;;;;;16.67;10.68;;;13.30;99.90;;;;;;5066112;28;20049;-64
2023/09/23 08:13:11;;;;;;;18.63;12.48;;;13.30;99.90;;;;;;5061874;28;20111;-64
2023/09/23 08:15:37;;;;;;;14.60;9.80;;;13.30;99.90;;;;;;5060231;28;20077;-66
2023/09/23 08:18:02;;;;;;;16.17;10.85;;;13.20;99.90;;;;;;5061797;28;20040;-66
2023/09/23 08:20:29;;;;;;;20.30;10.60;;;13.20;99.90;;;;;;5053143;28;20052;-66
2023/09/23 08:22:55;;;;;;;15.85;10.90;;;13.30;99.90;;;;;;5055712;28;20480;-66
2023/09/23 08:25:20;;;;;;;15.13;10.88;;;13.40;99.90;;;;;;5053575;28;20041;-65
2023/09/23 08:27:47;;;;;;;18.48;11.77;;;13.60;99.90;;;;;;5052481;28;20056;-65
2023/09/23 08:30:15;;;;;;;16.73;11.20;;;13.80;99.90;;;;;;5052238;28;20065;-64
2023/09/23 08:32:41;;;;;;;13.85;9.88;;;14.00;99.90;;;;;;5053783;28;20387;-63
2023/09/23 08:35:07;;;;;;;13.65;9.80;;;14.10;99.90;;;;;;5052345;28;20056;-65
2023/09/23 08:37:34;;;;;;;14.25;10.27;;;14.20;99.90;;;;;;5061315;28;20047;-64
2023/09/23 08:40:00;;;;;;;14.02;9.00;;;14.20;99.90;;;;;;5056481;28;20124;-63
2023/09/23 08:42:27;;;;;;;15.02;9.25;;;14.10;99.90;;;;;;5052790;28;20182;-64
2023/09/23 08:44:53;;;;;;;13.23;8.95;;;14.00;99.90;;;;;;5051265;28;20051;-63
2023/09/23 08:47:20;;;;;;;15.80;9.63;;;13.90;99.90;;;;;;5053026;28;20159;-63
2023/09/23 08:49:50;;;;;;;12.75;9.38;;;14.00;99.90;;;;;;5072462;28;20040;-63
2023/09/23 08:52:17;;;;;;;13.88;9.27;;;14.00;99.90;;;;;;5072233;28;20052;-64
2023/09/23 08:54:46;;;;;;;11.60;8.95;;;14.00;99.90;;;;;;5072131;28;20499;-64
2023/09/23 08:57:12;;;;;;;12.85;8.45;;;14.00;99.90;;;;;;5072712;28;20127;-63
2023/09/23 08:59:39;;;;;;;12.45;8.90;;;14.00;99.90;;;;;;5072056;28;20119;-64
2023/09/23 09:02:05;;;;;;;10.77;8.60;;;14.00;99.90;;;;;;5072360;28;20078;-63
2023/09/23 09:04:31;;;;;;;14.07;7.72;;;14.00;99.90;;;;;;5071815;28;20044;-63
2023/09/23 09:06:57;;;;;;;12.40;9.32;;;14.00;99.90;;;;;;5071557;28;20049;-64
2023/09/23 09:09:23;;;;;;;12.70;9.00;;;14.20;99.90;;;;;;5072723;28;20117;-63
2023/09/23 09:11:50;;;;;;;11.35;9.15;;;14.40;99.90;;;;;;5076008;28;20048;-64
2023/09/23 09:14:17;;;;;;;12.75;8.82;;;14.60;99.90;;;;;;5076012;28;20044;-63
2023/09/23 09:16:43;;;;;;;11.90;8.43;;;14.50;99.90;;;;;;5075875;28;20048;-63
2023/09/23 09:19:09;;;;;;;10.73;7.85;;;14.40;99.90;;;;;;5075578;28;20048;-63
2023/09/23 09:21:35;;;;;;;11.25;8.98;;;14.50;99.90;;;;;;5075384;28;20053;-63
2023/09/23 09:24:02;;;;;;;12.18;8.38;;;14.70;99.90;;;;;;5075828;28;20124;-64
2023/09/23 09:26:28;;;;;;;11.15;7.90;;;15.00;99.90;;;;;;5076081;28;20060;-64
2023/09/23 09:28:53;;;;;;;9.93;8.15;;;15.00;99.90;;;;;;5075606;28;20060;-64
2023/09/23 09:31:20;;;;;;;11.18;8.30;;;15.00;99.90;;;;;;5075779;28;20088;-64
2023/09/23 09:33:50;;;;;;;11.70;9.10;;;15.10;99.90;;;;;;5074470;28;20060;-64
2023/09/23 09:36:23;;;;;;;10.60;8.25;;;15.30;99.90;;;;;;5074587;28;20056;-64
2023/09/23 09:38:54;;;;;;;11.20;8.25;;;15.30;99.90;;;;;;5075724;28;20048;-64
2023/09/23 09:41:33;;;;;;;13.65;8.48;;;15.30;99.90;;;;;;5074423;28;20477;-64
2023/09/23 09:44:04;;;;;;;9.80;7.85;;;15.50;99.90;;;;;;5075422;28;20048;-64
2023/09/23 09:46:30;;;;;;;10.90;8.15;;;15.40;99.90;;;;;;5075368;28;20477;-64
2023/09/23 09:48:59;;;;;;;9.25;7.22;;;15.20;99.90;;;;;;5074958;28;20478;-63
2023/09/23 09:51:25;;;;;;;9.68;7.80;;;15.20;99.90;;;;;;5075235;28;20083;-63
2023/09/23 09:53:51;;;;;;;9.25;7.60;;;15.10;99.90;;;;;;5075424;28;20083;-63
2023/09/23 09:56:19;;;;;;;9.13;7.43;;;15.20;99.90;;;;;;5075284;28;20101;-62
2023/09/23 09:58:48;;;;;;;9.68;7.70;;;15.20;99.90;;;;;;5073483;28;20036;-62
2023/09/23 10:01:13;;;;;;;9.93;7.82;;;15.20;99.90;;;;;;5074819;28;20470;-63
2023/09/23 10:03:51;;;;;;;8.88;7.35;;;15.10;99.90;;;;;;5074995;28;20037;-62
2023/09/23 10:06:22;;;;;;;8.85;6.88;;;15.30;99.90;;;;;;5075059;28;20055;-64
2023/09/23 10:08:48;;;;;;;9.45;6.80;;;15.50;99.90;;;;;;5074667;28;20496;-62
2023/09/23 10:11:15;;;;;;;9.00;6.63;;;15.70;99.90;;;;;;5075161;28;20060;-62
2023/09/23 10:13:42;;;;;;;9.07;6.88;;;15.80;99.90;;;;;;5074893;28;20044;-62
2023/09/23 10:16:19;;;;;;;8.15;6.00;;;15.80;99.90;;;;;;5074978;28;20059;-62
2023/09/23 10:18:56;;;;;;;9.02;6.28;;;15.60;99.90;;;;;;5074813;28;20393;-62
2023/09/23 10:21:24;;;;;;;7.10;6.20;;;15.50;99.90;;;;;;5074450;28;20052;-62
2023/09/23 10:23:51;;;;;;;9.07;6.80;;;15.40;99.90;;;;;;5074883;28;20047;-62
2023/09/23 10:26:19;;;;;;;6.63;5.90;;;15.50;99.90;;;;;;5075031;28;20127;-62
2023/09/23 10:29:03;;;;;;;8.48;6.00;;;15.60;99.90;;;;;;5073836;28;20064;-62
2023/09/23 10:31:34;;;;;;;8.20;5.97;;;15.70;99.90;;;;;;5074537;28;20052;-62
2023/09/23 10:34:10;;;;;;;8.00;5.10;;;15.80;99.90;;;;;;5074797;28;20051;-62
2023/09/23 10:36:36;;;;;;;5.78;5.18;;;16.00;99.90;;;;;;5073580;28;20045;-62
2023/09/23 10:39:15;;;;;;;6.53;4.95;;;16.10;99.90;;;;;;5074427;28;20056;-63
2023/09/23 10:41:41;;;;;;;6.55;5.00;;;16.30;99.90;;;;;;5074479;28;20044;-63
2023/09/23 10:44:08;;;;;;;8.15;4.45;;;16.70;99.90;;;;;;5073967;28;20066;-63
2023/09/23 10:46:33;;;;;;;5.75;4.50;;;16.90;99.90;;;;;;5074482;28;20052;-63
2023/09/23 10:49:02;;;;;;;7.22;4.97;;;16.80;99.90;;;;;;5073711;28;20037;-63
2023/09/23 10:51:28;;;;;;;6.47;4.97;;;16.70;99.90;;;;;;5074120;28;20044;-63
2023/09/23 10:53:55;;;;;;;8.20;4.70;;;16.80;99.90;;;;;;5074259;28;20045;-63
2023/09/23 10:56:22;;;;;;;6.60;4.53;;;16.80;99.90;;;;;;5074041;28;20436;-63
2023/09/23 10:58:51;;;;;;;6.07;4.40;;;16.80;99.90;;;;;;5072159;28;20044;-63
2023/09/23 11:01:20;;;;;;;6.70;3.85;;;16.90;99.90;;;;;;5073819;28;20099;-63
2023/09/23 11:03:46;;;;;;;6.43;4.68;;;17.00;99.90;;;;;;5074086;28;20045;-63
2023/09/23 11:06:16;;;;;;;6.30;4.60;;;17.20;99.90;;;;;;5073667;28;20393;-62
2023/09/23 11:08:42;;;;;;;5.05;4.05;;;17.20;99.90;;;;;;5073023;28;20047;-64
2023/09/23 11:11:09;;;;;;;4.70;4.20;;;17.20;99.90;;;;;;5072323;28;20080;-64
2023/09/23 11:13:35;;;;;;;5.13;4.63;;;17.20;99.90;;;;;;5073182;28;20060;-64
2023/09/23 11:16:10;;;;;;;6.68;4.43;;;17.20;99.90;;;;;;5073448;28;20120;-64
2023/09/23 11:18:37;;;;;;;5.30;4.18;;;17.20;99.90;;;;;;5073579;28;20121;-63
2023/09/23 11:21:03;;;;;;;4.97;3.92;;;17.30;99.90;;;;;;5073405;28;20131;-62
2023/09/23 11:23:29;;;;;;;5.38;3.70;;;17.20;99.90;;;;;;5073693;28;20139;-62
2023/09/23 11:25:55;;;;;;;4.57;3.60;;;16.80;99.90;;;;;;5073525;28;20048;-62
2023/09/23 11:28:22;;;;;;;3.78;3.35;;;16.50;99.90;;;;;;5072785;28;20071;-63
2023/09/23 11:30:50;;;;;;;4.32;3.58;;;16.30;99.90;;;;;;5073357;28;20056;-64
2023/09/23 11:33:16;;;;;;;4.55;3.40;;;16.10;99.90;;;;;;5072881;28;20052;-64
2023/09/23 11:35:42;;;;;;;3.80;2.90;;;16.00;99.90;;;;;;5073260;28;20123;-64
2023/09/23 11:38:09;;;;;;;3.97;2.97;;;16.10;99.90;;;;;;5072563;28;20229;-63
2023/09/23 11:40:34;;;;;;;3.45;3.00;;;16.20;99.90;;;;;;5072858;28;20497;-64
2023/09/23 11:43:01;;;;;;;4.45;2.80;;;16.30;99.90;;;;;;5071938;28;20051;-64
2023/09/23 11:45:27;;;;;;;3.03;2.63;;;16.20;99.90;;;;;;5073427;28;20056;-64
2023/09/23 11:47:55;;;;;;;5.05;2.90;;;16.10;99.90;;;;;;5072764;28;20059;-65
2023/09/23 11:50:21;;;;;;;3.65;3.00;;;16.00;99.90;;;;;;5072807;28;20044;-66
2023/09/23 11:52:46;;;;;;;4.18;3.38;;;15.90;99.90;;;;;;5071570;28;20041;-64
2023/09/23 11:55:12;;;;;;;4.35;3.15;;;16.00;99.90;;;;;;5073218;28;20048;-64
2023/09/23 11:57:41;;;;;;;4.70;3.42;;;16.20;99.90;;;;;;5072172;28;20048;-64
2023/09/23 12:00:09;;;;;;;4.00;3.17;;;16.30;99.90;;;;;;5072533;28;20041;-64
2023/09/23 12:02:41;;;;;;;6.07;3.75;;;16.20;99.90;;;;;;5073221;28;20119;-63
2023/09/23 12:05:16;;;;;;;5.80;3.72;;;16.10;99.90;;;;;;5072627;28;20135;-64
2023/09/23 12:07:42;;;;;;;4.10;3.35;;;16.20;99.90;;;;;;5071485;28;20045;-64
2023/09/23 12:10:09;;;;;;;4.82;3.70;;;16.30;99.90;;;;;;5072764;28;20517;-65
2023/09/23 12:12:35;;;;;;;7.10;3.75;;;16.30;99.90;;;;;;5072522;28;20505;-64
2023/09/23 12:15:01;;;;;;;4.70;3.83;;;16.40;99.90;;;;;;5073084;28;20045;-65
2023/09/23 12:17:27;;;;;;;4.40;3.30;;;16.40;99.90;;;;;;5072948;28;20106;-64
2023/09/23 12:19:53;;;;;;;3.85;2.92;;;16.50;99.90;;;;;;5072513;28;20036;-64
2023/09/23 12:22:20;;;;;;;4.32;3.55;;;16.50;99.90;;;;;;5073080;28;20040;-64
2023/09/23 12:24:46;;;;;;;4.97;3.42;;;16.50;99.90;;;;;;5072767;28;20052;-65
2023/09/23 12:27:14;;;;;;;3.72;3.33;;;16.60;99.90;;;;;;5071531;28;20528;-65
2023/09/23 12:29:40;;;;;;;4.85;2.78;;;16.70;99.90;;;;;;5071615;28;20127;-64
2023/09/23 12:32:06;;;;;;;3.65;2.53;;;16.60;99.90;;;;;;5072536;28;20083;-64
2023/09/23 12:34:32;;;;;;;3.50;2.50;;;16.60;99.90;;;;;;5072199;28;20045;-64
2023/09/23 12:36:58;;;;;;;3.40;2.10;;;16.80;99.90;;;;;;5072474;28;20044;-64
2023/09/23 12:39:24;;;;;;;4.20;2.20;;;16.90;99.90;;;;;;5072116;28;20186;-64